Time;durP1;ratioP1;P1;durP2;ratioP2;P2;SDS_P1;SDS_P2;PMS_P1;PMS_P2;Temp;Humidity;BMP_temperature;BMP_pressure;BME280_temperature;BME280_humidity;BME280_pressure;Samples;Min_cycle;Max_cycle;Signal;HPM_P1;HPM_P2
2022/09/02 08:03:48;;;;;;;1.37;1.27;;;22.90;74.50;;;;;;10623301;32;12277176;-69
2022/09/02 08:09:51;;;;;;;0.82;0.77;;;23.10;76.20;;;;;;10948162;32;20391;-69
2022/09/02 08:15:55;;;;;;;1.45;0.98;;;23.30;76.80;;;;;;10992568;32;20042;-69
2022/09/02 08:22:05;;;;;;;2.58;1.37;;;23.30;76.90;;;;;;10974150;32;20441;-69
2022/09/02 08:28:08;;;;;;;3.62;1.12;;;23.70;77.10;;;;;;10990819;32;20035;-69
2022/09/02 08:34:10;;;;;;;1.35;1.12;;;23.90;75.60;;;;;;10981285;32;20031;-69
2022/09/02 08:40:18;;;;;;;3.33;1.70;;;24.10;74.80;;;;;;10992320;32;20445;-70
2022/09/02 08:46:25;;;;;;;1.40;0.98;;;24.20;73.10;;;;;;10992080;32;20053;-69
2022/09/02 08:52:42;;;;;;;1.35;0.85;;;24.40;73.40;;;;;;10982214;32;20105;-69
2022/09/02 08:59:12;;;;;;;1.75;1.00;;;24.50;73.30;;;;;;10975712;32;20410;-69
2022/09/02 09:05:17;;;;;;;1.35;1.12;;;24.50;72.50;;;;;;10986901;32;20038;-69
2022/09/02 09:11:19;;;;;;;1.95;0.90;;;24.60;71.50;;;;;;10987916;32;20030;-69
2022/09/02 09:17:27;;;;;;;1.87;1.05;;;24.80;71.50;;;;;;10945850;32;20343;-68
2022/09/02 09:23:39;;;;;;;2.03;1.15;;;24.90;71.00;;;;;;10960023;32;20052;-68
2022/09/02 09:29:44;;;;;;;1.30;0.95;;;25.00;69.50;;;;;;10961196;32;20060;-69
2022/09/02 09:35:49;;;;;;;2.92;0.80;;;25.20;68.90;;;;;;10976339;32;20089;-68
2022/09/02 09:42:10;;;;;;;1.92;1.00;;;25.30;68.60;;;;;;10958058;32;20054;-69
2022/09/02 09:48:29;;;;;;;0.60;0.60;;;25.30;68.10;;;;;;10964543;32;20053;-69
2022/09/02 09:54:32;;;;;;;2.90;1.45;;;25.50;67.60;;;;;;10958627;32;20434;-69
2022/09/02 10:00:34;;;;;;;1.15;0.88;;;25.60;67.00;;;;;;10960468;32;20061;-69
2022/09/02 10:07:33;;;;;;;2.12;1.17;;;25.80;67.10;;;;;;10945363;32;20059;-69
2022/09/02 10:13:47;;;;;;;1.73;0.90;;;26.00;66.50;;;;;;10840709;32;20453;-73
2022/09/02 10:20:10;;;;;;;0.82;0.65;;;26.10;65.80;;;;;;10835256;32;20055;-73
2022/09/02 10:26:31;;;;;;;1.40;1.00;;;26.30;65.90;;;;;;10828577;32;20040;-73
2022/09/02 10:32:39;;;;;;;1.05;0.88;;;26.40;64.00;;;;;;10829362;32;20416;-74
2022/09/02 10:38:42;;;;;;;;;;;26.40;64.50;;;;;;10829479;32;20420;-73
2022/09/02 10:45:02;;;;;;;2.30;1.02;;;26.60;63.80;;;;;;10936966;32;19933;-72
2022/09/02 10:51:25;;;;;;;1.62;1.02;;;26.70;61.80;;;;;;10943941;32;20347;-74
2022/09/02 10:58:04;;;;;;;1.30;0.98;;;26.70;61.40;;;;;;10943718;32;20007;-72
2022/09/02 11:04:18;;;;;;;1.30;1.00;;;27.10;61.70;;;;;;10754256;33;20094;-72
2022/09/02 11:10:49;;;;;;;1.52;1.02;;;27.40;60.60;;;;;;10749624;33;20028;-72
2022/09/02 11:17:01;;;;;;;3.47;0.90;;;27.50;59.80;;;;;;10753393;33;20047;-72
2022/09/02 11:23:29;;;;;;;1.12;0.80;;;27.20;60.80;;;;;;10753174;33;20099;-73
2022/09/02 11:29:40;;;;;;;1.92;1.05;;;26.70;61.30;;;;;;10754994;33;20036;-72
2022/09/02 11:35:43;;;;;;;1.15;0.80;;;26.90;61.60;;;;;;10792549;32;20024;-71
2022/09/02 11:41:55;;;;;;;1.87;1.35;;;27.00;61.80;;;;;;10942170;32;20054;-72
2022/09/02 11:48:29;;;;;;;3.35;1.23;;;27.30;59.90;;;;;;10940174;32;20054;-70
2022/09/02 11:54:38;;;;;;;1.92;1.37;;;27.60;57.30;;;;;;10939142;32;20031;-71
2022/09/02 12:00:57;;;;;;;3.65;1.92;;;27.50;55.20;;;;;;10928286;32;20019;-72
2022/09/02 12:07:23;;;;;;;3.05;1.73;;;27.50;53.60;;;;;;10863521;32;20374;-72
2022/09/02 12:13:48;;;;;;;2.47;1.10;;;27.40;53.80;;;;;;10859650;32;20050;-72
2022/09/02 12:19:50;;;;;;;3.30;1.77;;;27.50;54.20;;;;;;10863230;32;20058;-72
2022/09/02 12:26:00;;;;;;;2.12;1.37;;;27.60;54.50;;;;;;10863128;32;20352;-72
2022/09/02 12:32:02;;;;;;;2.80;1.00;;;27.60;53.30;;;;;;10863068;32;20058;-68
2022/09/02 12:38:10;;;;;;;1.75;1.45;;;27.50;53.80;;;;;;10926316;32;20026;-68
2022/09/02 12:44:50;;;;;;;2.08;1.10;;;27.50;53.60;;;;;;10939176;32;20023;-68
2022/09/02 12:50:56;;;;;;;1.15;1.00;;;27.60;53.80;;;;;;10944319;32;20335;-68
2022/09/02 12:56:58;;;;;;;2.58;1.48;;;27.60;53.40;;;;;;10948112;32;20042;-69
2022/09/02 13:03:28;;;;;;;2.90;1.75;;;27.50;52.60;;;;;;10947565;32;20049;-68
2022/09/02 13:10:02;;;;;;;2.05;1.52;;;27.30;51.30;;;;;;10947580;32;20042;-68
2022/09/02 13:16:13;;;;;;;1.40;1.17;;;27.30;51.70;;;;;;10947460;32;20027;-69
2022/09/02 13:22:39;;;;;;;1.33;0.90;;;27.30;52.90;;;;;;10947141;32;20058;-68
2022/09/02 13:35:59;;;;;;;1.77;1.35;;;27.60;53.00;;;;;;10946756;32;20406;-68
2022/09/02 13:42:15;;;;;;;2.10;1.55;;;27.50;52.30;;;;;;10946351;32;20054;-68
2022/09/02 13:48:29;;;;;;;1.27;0.82;;;27.40;52.10;;;;;;10941932;32;20047;-68
2022/09/02 13:54:35;;;;;;;2.12;1.25;;;27.40;52.30;;;;;;10932551;32;20038;-68
2022/09/02 14:00:40;;;;;;;2.20;1.65;;;27.60;52.50;;;;;;10943738;32;20062;-68
2022/09/02 14:06:45;;;;;;;1.48;1.10;;;27.60;50.90;;;;;;10945457;32;20049;-68
2022/09/02 14:12:48;;;;;;;1.37;0.98;;;27.50;51.10;;;;;;10931674;32;20069;-68
2022/09/02 14:19:03;;;;;;;1.35;1.23;;;27.60;51.70;;;;;;10935452;32;20428;-68
2022/09/02 14:25:14;;;;;;;2.58;0.75;;;27.80;52.30;;;;;;10949106;32;20023;-67
2022/09/02 14:31:29;;;;;;;0.88;0.88;;;27.90;52.40;;;;;;10945045;32;20054;-68
2022/09/02 14:37:31;;;;;;;1.25;0.85;;;27.90;52.30;;;;;;10949530;32;20035;-68
2022/09/02 14:44:00;;;;;;;1.30;1.10;;;28.00;52.40;;;;;;10953321;32;20023;-69
2022/09/02 14:50:03;;;;;;;1.35;1.08;;;28.10;52.90;;;;;;10822993;32;20491;-68
2022/09/02 14:56:05;;;;;;;2.50;1.35;;;28.20;52.50;;;;;;10856967;32;20027;-69
2022/09/02 15:02:19;;;;;;;1.95;1.30;;;28.30;52.10;;;;;;10864330;32;20046;-68
2022/09/02 15:08:21;;;;;;;3.30;1.23;;;28.40;51.60;;;;;;10864814;32;20066;-68
2022/09/02 15:14:23;;;;;;;2.30;1.17;;;28.60;51.40;;;;;;10864816;32;20062;-68
2022/09/02 15:20:26;;;;;;;0.95;0.90;;;28.60;51.50;;;;;;10857200;32;20405;-69
2022/09/02 15:26:28;;;;;;;2.30;1.00;;;28.70;50.80;;;;;;10920000;32;20078;-69
2022/09/02 15:32:30;;;;;;;2.62;1.25;;;28.80;50.80;;;;;;10940888;32;20395;-68
2022/09/02 15:38:32;;;;;;;1.83;1.20;;;28.80;50.40;;;;;;10946581;32;20054;-69
2022/09/02 15:44:34;;;;;;;1.73;1.23;;;28.80;50.90;;;;;;10942947;32;20421;-69
2022/09/02 15:50:36;;;;;;;2.50;1.27;;;28.90;50.50;;;;;;10942729;32;20015;-69
2022/09/02 15:56:40;;;;;;;4.78;1.05;;;29.00;49.90;;;;;;10942574;32;20042;-68
2022/09/02 16:02:44;;;;;;;4.68;1.40;;;28.90;50.20;;;;;;10878698;27;20039;-68
2022/09/02 16:08:46;;;;;;;1.85;1.20;;;28.80;50.50;;;;;;10829100;32;20043;-68
2022/09/02 16:14:55;;;;;;;1.92;1.17;;;28.80;50.90;;;;;;10841342;32;20086;-68
2022/09/02 16:20:57;;;;;;;2.17;1.40;;;28.90;50.90;;;;;;10838491;32;20039;-69
2022/09/02 16:26:59;;;;;;;2.62;1.05;;;28.80;50.80;;;;;;10833491;32;20046;-68
2022/09/02 16:33:01;;;;;;;2.30;1.08;;;28.80;50.40;;;;;;10831291;32;20047;-68
2022/09/02 16:39:05;;;;;;;1.37;0.88;;;29.00;50.00;;;;;;10830560;32;20687;-68
2022/09/02 16:45:07;;;;;;;1.80;0.88;;;29.80;48.70;;;;;;10840389;32;20035;-68
2022/09/02 16:51:09;;;;;;;1.15;0.75;;;31.10;47.00;;;;;;10858173;32;20062;-68
2022/09/02 16:57:12;;;;;;;0.60;0.43;;;32.10;45.80;;;;;;10829648;33;20340;-69
2022/09/02 17:03:14;;;;;;;2.42;1.17;;;32.30;46.10;;;;;;10829593;33;20024;-69
2022/09/02 17:09:16;;;;;;;0.98;0.77;;;32.00;47.10;;;;;;10829646;33;20070;-68
2022/09/02 17:15:19;;;;;;;1.08;0.62;;;31.80;48.00;;;;;;10816032;33;20056;-69
2022/09/02 17:21:23;;;;;;;0.98;0.68;;;30.80;49.30;;;;;;10828854;33;20032;-69
2022/09/02 17:27:26;;;;;;;2.20;0.75;;;29.80;51.20;;;;;;10827916;32;20032;-69
2022/09/02 17:33:29;;;;;;;1.62;0.90;;;29.00;52.50;;;;;;10828582;32;20058;-69
2022/09/02 17:39:35;;;;;;;0.90;0.68;;;28.50;53.30;;;;;;10828045;33;20344;-69
2022/09/02 17:45:37;;;;;;;1.45;0.62;;;28.10;53.90;;;;;;10827016;33;20063;-68
2022/09/02 17:51:41;;;;;;;1.33;1.05;;;27.80;54.40;;;;;;10826844;33;20050;-68
2022/09/02 17:58:00;;;;;;;3.53;1.00;;;27.50;54.80;;;;;;10827660;33;20039;-68
2022/09/02 18:04:25;;;;;;;4.72;1.67;;;27.30;55.20;;;;;;10824377;32;20050;-71
2022/09/02 18:10:34;;;;;;;2.85;1.55;;;27.10;55.60;;;;;;10827436;32;20055;-72
2022/09/02 18:17:05;;;;;;;1.40;0.62;;;26.90;56.10;;;;;;10827549;32;20028;-72
2022/09/02 18:23:24;;;;;;;1.70;1.20;;;26.80;56.50;;;;;;10826963;33;20035;-71
2022/09/02 18:29:39;;;;;;;1.62;1.00;;;26.60;56.70;;;;;;10826650;33;20027;-72
2022/09/02 18:35:51;;;;;;;1.48;0.80;;;26.50;57.10;;;;;;10826483;33;20384;-71
2022/09/02 18:42:05;;;;;;;1.10;0.70;;;26.40;57.50;;;;;;10826289;33;20051;-71
2022/09/02 18:48:34;;;;;;;0.60;0.57;;;26.30;57.80;;;;;;10825704;33;20032;-71
2022/09/02 18:55:14;;;;;;;3.08;1.12;;;26.20;58.30;;;;;;10825740;33;20020;-71
2022/09/02 19:01:25;;;;;;;3.05;1.70;;;26.10;58.60;;;;;;10825814;32;20032;-72
2022/09/02 19:14:19;;;;;;;4.70;2.58;;;25.80;59.40;;;;;;10825436;33;20177;-71
2022/09/02 19:20:22;;;;;;;5.18;2.70;;;25.70;59.70;;;;;;10825169;33;20397;-71
2022/09/02 19:26:25;;;;;;;7.25;2.70;;;25.60;59.90;;;;;;10825029;33;20024;-71
2022/09/02 19:32:31;;;;;;;4.00;2.25;;;25.60;60.20;;;;;;10825002;33;20046;-71
2022/09/02 19:38:34;;;;;;;5.60;2.97;;;25.50;60.40;;;;;;10824883;33;20027;-71
2022/09/02 19:44:36;;;;;;;9.70;2.58;;;25.50;60.60;;;;;;10824852;33;20321;-71
2022/09/02 19:50:56;;;;;;;3.87;2.15;;;25.40;60.80;;;;;;10824462;33;20032;-71
2022/09/02 19:56:59;;;;;;;2.55;2.00;;;25.40;61.00;;;;;;10824342;33;20290;-71
2022/09/02 20:03:19;;;;;;;5.60;2.75;;;25.30;61.30;;;;;;10823996;33;20036;-72
2022/09/02 20:09:22;;;;;;;2.95;1.85;;;25.30;61.50;;;;;;10824339;33;20024;-71
2022/09/02 20:15:25;;;;;;;3.53;2.03;;;25.20;61.80;;;;;;10823986;33;20340;-71
2022/09/02 20:21:35;;;;;;;3.45;1.80;;;25.20;61.90;;;;;;10844671;32;20074;-71
2022/09/02 20:28:18;;;;;;;8.27;2.55;;;25.20;62.50;;;;;;10861143;32;20051;-71
2022/09/02 20:34:38;;;;;;;4.05;2.37;;;25.20;62.50;;;;;;10860860;32;20339;-71
2022/09/02 20:41:01;;;;;;;4.03;2.25;;;25.00;63.00;;;;;;10860726;32;20054;-71
2022/09/02 20:47:23;;;;;;;2.87;1.90;;;25.00;63.90;;;;;;10860765;32;20028;-71
2022/09/02 20:53:34;;;;;;;5.65;2.67;;;25.00;64.20;;;;;;10860635;32;20050;-74
2022/09/02 21:00:11;;;;;;;5.68;2.95;;;24.90;64.50;;;;;;10860238;32;20367;-71
2022/09/02 21:06:14;;;;;;;4.87;2.28;;;24.90;64.50;;;;;;10847789;32;20351;-71
2022/09/02 21:12:23;;;;;;;3.33;2.15;;;24.80;64.60;;;;;;10866453;32;20016;-71
2022/09/02 21:18:47;;;;;;;2.30;1.80;;;24.80;64.90;;;;;;10853166;32;20054;-73
2022/09/02 21:25:22;;;;;;;3.20;2.50;;;24.70;65.30;;;;;;10844353;32;20020;-73
2022/09/02 21:31:24;;;;;;;3.60;2.08;;;24.60;65.40;;;;;;10831505;32;20032;-73
2022/09/02 21:37:35;;;;;;;4.60;2.20;;;24.50;66.30;;;;;;10863964;32;20435;-73
2022/09/02 21:43:47;;;;;;;12.27;2.87;;;24.50;66.90;;;;;;10863641;32;20035;-74
2022/09/02 21:50:20;;;;;;;3.80;1.98;;;24.50;66.50;;;;;;10863642;32;20058;-73
2022/09/02 21:56:48;;;;;;;2.87;2.35;;;24.40;66.80;;;;;;10859762;32;20070;-74
2022/09/02 22:03:12;;;;;;;3.23;2.40;;;24.30;66.90;;;;;;10675912;33;20041;-73
2022/09/02 22:09:29;;;;;;;2.58;1.92;;;24.30;66.90;;;;;;10676772;33;20056;-73
2022/09/02 22:15:56;;;;;;;5.90;2.83;;;24.20;67.10;;;;;;10677978;33;20021;-74
2022/09/02 22:22:23;;;;;;;3.22;2.28;;;24.20;67.70;;;;;;10676522;33;20057;-73
2022/09/02 22:28:35;;;;;;;5.32;3.28;;;24.20;67.70;;;;;;10675031;33;20056;-74
2022/09/02 22:35:03;;;;;;;4.28;3.42;;;24.20;68.00;;;;;;10659644;33;20017;-73
2022/09/02 22:41:28;;;;;;;5.55;3.03;;;24.20;67.80;;;;;;10830472;32;20047;-74
2022/09/02 22:53:53;;;;;;;3.65;2.65;;;24.10;67.90;;;;;;10853750;32;20024;-73
2022/09/02 23:00:12;;;;;;;6.12;3.00;;;24.00;68.10;;;;;;10855453;32;20078;-74
2022/09/02 23:06:18;;;;;;;2.67;1.90;;;23.80;68.50;;;;;;10855155;32;20333;-74
2022/09/02 23:19:39;;;;;;;6.63;1.93;;;23.60;68.80;;;;;;10677027;33;20104;-74
2022/09/02 23:25:52;;;;;;;3.90;2.42;;;23.60;68.90;;;;;;10676438;33;20037;-73
2022/09/02 23:32:05;;;;;;;3.50;2.58;;;23.60;68.90;;;;;;10675822;33;20033;-73
2022/09/02 23:38:44;;;;;;;3.80;2.00;;;23.60;69.00;;;;;;10676063;33;20032;-73
2022/09/02 23:45:01;;;;;;;2.60;1.97;;;23.60;68.90;;;;;;10675763;33;20037;-74
2022/09/02 23:51:22;;;;;;;2.90;2.00;;;23.50;69.10;;;;;;10713505;32;20299;-73
2022/09/02 23:57:25;;;;;;;4.35;2.40;;;23.50;69.30;;;;;;10848544;32;20023;-73
